Time;durP1;ratioP1;P1;durP2;ratioP2;P2;SDS_P1;SDS_P2;PMS_P1;PMS_P2;Temp;Humidity;BMP_temperature;BMP_pressure;BME280_temperature;BME280_humidity;BME280_pressure;Samples;Min_cycle;Max_cycle;Signal;HPM_P1;HPM_P2
2024/01/16 00:01:22;;;;;;;2.67;2.57;;;;;;;-1.72;100.00;98034.16;4172672;28;20257;-55
2024/01/16 00:03:23;;;;;;;4.37;4.07;;;;;;;-1.79;100.00;98027.88;4174287;28;20212;-57
2024/01/16 00:05:25;;;;;;;3.23;2.43;;;;;;;-1.76;100.00;98032.84;4171003;28;20302;-53
2024/01/16 00:07:27;;;;;;;4.53;4.33;;;;;;;-1.72;100.00;98028.81;4158237;28;21006;-53
2024/01/16 00:09:28;;;;;;;3.30;3.10;;;;;;;-1.76;100.00;98038.22;4169148;28;20673;-56
2024/01/16 00:11:30;;;;;;;2.87;2.77;;;;;;;-1.76;100.00;98043.59;4165275;28;20232;-55
2024/01/16 00:13:33;;;;;;;2.33;2.23;;;;;;;-1.76;100.00;98044.44;4166192;28;20204;-54
2024/01/16 00:15:35;;;;;;;3.07;2.97;;;;;;;-1.76;100.00;98047.13;4174773;28;20211;-54
2024/01/16 00:17:36;;;;;;;1.90;1.90;;;;;;;-1.80;100.00;98045.00;4170135;28;20254;-54
2024/01/16 00:19:39;;;;;;;1.70;1.63;;;;;;;-1.71;100.00;98044.72;4184926;28;20567;-56
2024/01/16 00:21:42;;;;;;;1.90;1.80;;;;;;;-1.75;100.00;98040.72;4166123;28;20685;-55
2024/01/16 00:23:44;;;;;;;2.33;2.13;;;;;;;-1.82;100.00;98044.34;4172630;28;20572;-53
2024/01/16 00:25:46;;;;;;;8.33;2.87;;;;;;;-1.83;100.00;98050.69;4172700;28;20211;-54
2024/01/16 00:27:48;;;;;;;1.77;1.67;;;;;;;-1.81;100.00;98046.00;4168662;28;20235;-54
2024/01/16 00:29:49;;;;;;;1.83;1.80;;;;;;;-1.90;100.00;98047.09;4153130;28;20210;-56
2024/01/16 00:31:51;;;;;;;2.37;2.27;;;;;;;-1.86;100.00;98051.94;4166855;28;20231;-56
2024/01/16 00:33:53;;;;;;;2.43;2.33;;;;;;;-1.89;100.00;98054.97;4166694;28;20603;-53
2024/01/16 00:35:54;;;;;;;3.07;2.87;;;;;;;-1.83;100.00;98053.38;4174288;28;20661;-52
2024/01/16 00:37:56;;;;;;;2.57;2.47;;;;;;;-1.73;100.00;98053.97;4171004;28;20195;-52
2024/01/16 00:39:58;;;;;;;5.70;2.67;;;;;;;-1.87;100.00;98052.09;4170062;28;20212;-53
2024/01/16 00:42:01;;;;;;;2.63;2.53;;;;;;;-1.92;100.00;98054.50;4167139;28;20224;-52
2024/01/16 00:44:04;;;;;;;2.63;2.53;;;;;;;-2.03;100.00;98058.47;4175576;28;20253;-53
2024/01/16 00:46:06;;;;;;;2.30;2.20;;;;;;;-1.98;100.00;98049.88;4168579;28;20300;-54
2024/01/16 00:48:10;;;;;;;3.07;2.97;;;;;;;-1.97;100.00;98056.88;4166974;28;20571;-54
2024/01/16 00:50:12;;;;;;;2.67;2.57;;;;;;;-2.07;100.00;98056.34;4175193;28;20234;-55
2024/01/16 00:52:14;;;;;;;2.00;1.90;;;;;;;-1.97;100.00;98060.41;4177075;28;20231;-52
2024/01/16 00:54:16;;;;;;;2.77;2.67;;;;;;;-1.93;100.00;98059.00;4174178;28;20204;-52
2024/01/16 00:56:18;;;;;;;3.20;2.70;;;;;;;-1.91;100.00;98053.47;4176261;28;20222;-53
2024/01/16 00:58:23;;;;;;;2.70;2.60;;;;;;;-1.86;100.00;98053.75;4173974;28;20222;-54
2024/01/16 01:00:25;;;;;;;6.50;3.60;;;;;;;-1.83;100.00;98059.59;4170357;28;20236;-54
2024/01/16 01:02:26;;;;;;;1.77;1.77;;;;;;;-1.82;100.00;98060.44;4176424;28;20704;-53
2024/01/16 01:04:28;;;;;;;3.27;3.10;;;;;;;-1.80;100.00;98063.75;4170437;28;20239;-53
2024/01/16 01:06:30;;;;;;;2.67;2.57;;;;;;;-1.73;100.00;98056.63;4170901;28;20228;-52
2024/01/16 01:08:35;;;;;;;3.33;3.13;;;;;;;-1.63;100.00;98054.50;4169845;28;20232;-55
2024/01/16 01:10:37;;;;;;;2.53;2.43;;;;;;;-1.64;100.00;98053.69;4172119;28;20577;-54
2024/01/16 01:12:39;;;;;;;2.83;2.73;;;;;;;-1.63;100.00;98049.13;4174095;28;20894;-55
2024/01/16 01:14:40;;;;;;;7.40;2.73;;;;;;;-1.58;100.00;98052.94;4171059;28;20196;-53
2024/01/16 01:16:42;;;;;;;2.83;2.73;;;;;;;-1.60;100.00;98059.50;4169546;28;20215;-55
2024/01/16 01:18:44;;;;;;;3.30;3.10;;;;;;;-1.52;100.00;98056.72;4155355;28;20204;-54
2024/01/16 01:20:46;;;;;;;2.57;2.47;;;;;;;-1.57;100.00;98056.44;4155943;28;20214;-54
2024/01/16 01:22:48;;;;;;;3.30;3.10;;;;;;;-1.65;100.00;98061.91;4170528;28;20228;-54
2024/01/16 01:24:49;;;;;;;2.97;2.77;;;;;;;-1.55;100.00;98057.09;4177324;28;20215;-54
2024/01/16 01:26:51;;;;;;;3.10;2.90;;;;;;;-1.60;100.00;98059.50;4170566;28;20258;-54
2024/01/16 01:28:53;;;;;;;2.53;2.43;;;;;;;-1.58;100.00;98058.31;4171095;28;20207;-52
2024/01/16 01:30:55;;;;;;;2.90;2.70;;;;;;;-1.48;100.00;98063.38;4176182;28;20227;-52
2024/01/16 01:32:56;;;;;;;2.67;2.57;;;;;;;-1.49;100.00;98061.72;4170249;28;20604;-52
2024/01/16 01:34:59;;;;;;;4.43;4.23;;;;;;;-1.55;100.00;98065.97;4172377;28;20215;-54
2024/01/16 01:37:01;;;;;;;5.47;3.17;;;;;;;-1.57;100.00;98070.69;4167979;28;20240;-53
2024/01/16 01:39:03;;;;;;;2.07;1.97;;;;;;;-1.60;100.00;98075.59;4170917;28;21139;-52
2024/01/16 01:41:04;;;;;;;4.60;4.30;;;;;;;-1.53;100.00;98080.00;4178023;28;20215;-54
2024/01/16 01:43:25;;;;;;;2.80;2.47;;;;;;;-1.53;100.00;98076.53;4165766;28;20207;-53
2024/01/16 01:45:26;;;;;;;3.97;3.77;;;;;;;-1.51;100.00;98074.47;4177626;28;20216;-53
2024/01/16 01:47:29;;;;;;;3.00;2.70;;;;;;;-1.52;100.00;98072.81;4172536;28;20228;-53
2024/01/16 01:49:31;;;;;;;3.40;3.20;;;;;;;-1.54;100.00;98069.50;4170037;28;20639;-54
2024/01/16 01:51:33;;;;;;;2.40;2.30;;;;;;;-1.64;100.00;98068.94;4169381;28;20220;-57
2024/01/16 01:53:36;;;;;;;7.73;4.07;;;;;;;-1.51;100.00;98074.47;4170231;28;20278;-56
2024/01/16 01:55:38;;;;;;;3.17;3.07;;;;;;;-1.51;100.00;98079.84;4174544;28;20696;-54
2024/01/16 01:57:42;;;;;;;3.33;3.23;;;;;;;-1.62;100.00;98074.97;4170447;28;20212;-55
2024/01/16 01:59:45;;;;;;;4.63;4.23;;;;;;;-1.58;100.00;98078.91;4168039;28;20226;-53
2024/01/16 02:01:47;;;;;;;3.33;3.13;;;;;;;-1.65;100.00;98073.47;4150733;28;21081;-52
2024/01/16 02:03:50;;;;;;;5.93;3.90;;;;;;;-1.60;100.00;98086.31;4172291;28;20685;-52
2024/01/16 02:05:52;;;;;;;2.60;2.50;;;;;;;-1.50;100.00;98081.50;4175149;28;20215;-55
2024/01/16 02:07:54;;;;;;;3.73;3.53;;;;;;;-1.54;100.00;98085.59;4156545;28;20228;-52
2024/01/16 02:09:55;;;;;;;2.77;2.63;;;;;;;-1.58;100.00;98086.97;4157887;28;20282;-55
2024/01/16 02:11:57;;;;;;;6.83;3.57;;;;;;;-1.55;100.00;98089.28;4177888;28;20228;-52
2024/01/16 02:13:59;;;;;;;2.47;2.37;;;;;;;-1.60;100.00;98089.81;4172227;28;20658;-52
2024/01/16 02:16:01;;;;;;;3.73;3.53;;;;;;;-1.55;100.00;98090.09;4174095;28;20199;-52
2024/01/16 02:18:02;;;;;;;3.87;3.73;;;;;;;-1.54;100.00;98085.59;4175543;28;20200;-52
2024/01/16 02:20:07;;;;;;;3.80;3.57;;;;;;;-1.58;100.00;98089.66;4174639;28;20248;-52
2024/01/16 02:22:14;;;;;;;3.03;2.83;;;;;;;-1.56;100.00;98088.44;4174820;28;20238;-53
2024/01/16 02:24:17;;;;;;;2.97;2.87;;;;;;;-1.66;100.00;98093.25;4167814;28;20639;-52
2024/01/16 02:26:19;;;;;;;3.17;3.00;;;;;;;-1.62;100.00;98099.09;4176590;28;20215;-52
2024/01/16 02:28:23;;;;;;;2.57;2.47;;;;;;;-1.60;100.00;98091.69;4177636;28;20224;-57
2024/01/16 02:30:25;;;;;;;3.07;2.87;;;;;;;-1.63;100.00;98087.53;4174917;28;20357;-52
2024/01/16 02:32:27;;;;;;;3.30;3.10;;;;;;;-1.52;100.00;98086.22;4160458;28;20286;-53
2024/01/16 02:34:29;;;;;;;3.07;2.87;;;;;;;-1.48;100.00;98090.22;4174311;28;20204;-52
2024/01/16 02:36:31;;;;;;;3.17;2.93;;;;;;;-1.60;100.00;98086.31;4185828;28;20236;-53
2024/01/16 02:38:32;;;;;;;3.37;3.13;;;;;;;-1.65;100.00;98094.06;4167592;28;20203;-54
2024/01/16 02:40:34;;;;;;;6.80;3.23;;;;;;;-1.69;100.00;98090.94;4169873;28;20342;-52
2024/01/16 02:42:37;;;;;;;4.63;3.03;;;;;;;-1.72;100.00;98098.50;4170661;28;20240;-52
2024/01/16 02:44:40;;;;;;;4.43;4.23;;;;;;;-1.65;100.00;98096.75;4171976;28;20216;-52
2024/01/16 02:46:41;;;;;;;2.63;2.53;;;;;;;-1.67;100.00;98094.25;4177188;28;20983;-54
2024/01/16 02:48:43;;;;;;;3.10;3.00;;;;;;;-1.65;100.00;98099.44;4170201;28;20246;-52
2024/01/16 02:50:45;;;;;;;2.77;2.60;;;;;;;-1.76;100.00;98086.47;4169954;28;20246;-52
2024/01/16 02:52:47;;;;;;;2.80;2.70;;;;;;;-1.67;100.00;98096.13;4169910;28;20231;-52
2024/01/16 02:54:48;;;;;;;4.23;3.93;;;;;;;-1.79;100.00;98092.22;4168823;28;20255;-52
2024/01/16 02:56:50;;;;;;;5.03;4.07;;;;;;;-1.79;100.00;98098.44;4170185;28;20200;-52
2024/01/16 02:58:52;;;;;;;4.43;4.03;;;;;;;-1.76;100.00;98091.84;4169472;28;20779;-52
2024/01/16 03:00:54;;;;;;;3.27;3.07;;;;;;;-1.77;100.00;98091.03;4175012;28;20211;-53
2024/01/16 03:02:56;;;;;;;3.40;3.20;;;;;;;-1.78;100.00;98099.25;4170426;28;20213;-57
2024/01/16 03:04:58;;;;;;;2.73;2.53;;;;;;;-1.78;100.00;98104.59;4171886;28;20262;-52
2024/01/16 03:06:59;;;;;;;3.20;3.10;;;;;;;-1.75;100.00;98093.53;4167846;28;20636;-53
2024/01/16 03:09:01;;;;;;;14.97;3.43;;;;;;;-1.64;100.00;98101.09;4168168;28;20228;-53
2024/01/16 03:11:03;;;;;;;2.53;2.33;;;;;;;-1.74;100.00;98100.56;4166159;28;20212;-54
2024/01/16 03:13:05;;;;;;;3.07;2.77;;;;;;;-1.74;100.00;98105.91;4167997;28;20224;-55
2024/01/16 03:15:06;;;;;;;4.60;2.50;;;;;;;-1.67;100.00;98101.47;4169142;28;20248;-54
2024/01/16 03:17:08;;;;;;;4.40;3.33;;;;;;;-1.66;100.00;98103.16;4174318;28;20308;-52
2024/01/16 03:19:12;;;;;;;4.30;3.90;;;;;;;-1.63;100.00;98108.13;4173474;28;20247;-53
2024/01/16 03:21:13;;;;;;;3.63;3.43;;;;;;;-1.61;100.00;98100.75;4181683;28;20242;-54
2024/01/16 03:23:15;;;;;;;2.50;2.40;;;;;;;-1.66;100.00;98098.63;4183213;28;20208;-53
2024/01/16 03:25:17;;;;;;;7.07;3.73;;;;;;;-1.59;100.00;98096.88;4155069;28;20208;-54
2024/01/16 03:27:19;;;;;;;3.13;2.93;;;;;;;-1.68;100.00;98097.97;4170065;28;20215;-53
2024/01/16 03:29:21;;;;;;;2.30;2.20;;;;;;;-1.70;100.00;98097.31;4169057;28;20824;-53
2024/01/16 03:31:23;;;;;;;2.83;2.73;;;;;;;-1.65;100.00;98086.03;4151471;28;20283;-52
2024/01/16 03:33:25;;;;;;;4.87;2.60;;;;;;;-1.74;100.00;98089.84;4168369;28;20292;-53
2024/01/16 03:35:26;;;;;;;3.70;2.87;;;;;;;-1.66;100.00;98098.63;4165345;28;20212;-53
2024/01/16 03:37:28;;;;;;;2.70;1.70;;;;;;;-1.66;100.00;98092.41;4154754;28;20284;-51
2024/01/16 03:39:30;;;;;;;3.77;3.47;;;;;;;-1.60;100.00;98089.00;4168988;28;20204;-53
2024/01/16 03:41:31;;;;;;;3.07;2.87;;;;;;;-1.69;100.00;98090.13;4174627;28;20367;-53
2024/01/16 03:43:34;;;;;;;5.27;2.23;;;;;;;-1.67;100.00;98096.94;4167542;28;20221;-53
2024/01/16 03:45:36;;;;;;;5.03;3.20;;;;;;;-1.65;100.00;98091.41;4175617;28;20204;-53
2024/01/16 03:47:37;;;;;;;9.27;3.53;;;;;;;-1.63;100.00;98092.03;4168026;28;20204;-53
2024/01/16 03:49:39;;;;;;;3.13;2.97;;;;;;;-1.60;100.00;98100.53;4167857;28;20243;-55
2024/01/16 03:51:46;;;;;;;3.23;2.93;;;;;;;-1.65;100.00;98094.94;4169065;28;20304;-53
2024/01/16 03:53:48;;;;;;;2.60;2.40;;;;;;;-1.58;100.00;98095.00;4168683;28;20208;-54
2024/01/16 03:55:50;;;;;;;3.30;3.10;;;;;;;-1.53;100.00;98095.28;4167041;28;20227;-52
2024/01/16 03:57:52;;;;;;;2.83;2.63;;;;;;;-1.63;100.00;98097.41;4170095;28;20793;-52
2024/01/16 03:59:54;;;;;;;3.00;2.77;;;;;;;-1.65;100.00;98094.94;4167950;28;20334;-52
2024/01/16 04:01:56;;;;;;;3.17;2.97;;;;;;;-1.66;100.00;98082.53;4169365;28;20232;-52
2024/01/16 04:03:58;;;;;;;2.53;2.33;;;;;;;-1.66;100.00;98087.91;4170869;28;20324;-53
2024/01/16 04:05:59;;;;;;;3.10;2.90;;;;;;;-1.53;100.00;98095.28;4151217;28;20789;-52
2024/01/16 04:08:02;;;;;;;3.80;3.03;;;;;;;-1.54;100.00;98088.28;4167449;28;20236;-54
2024/01/16 04:10:05;;;;;;;3.97;3.57;;;;;;;-1.70;100.00;98091.13;4174607;28;20271;-53
2024/01/16 04:12:08;;;;;;;3.70;2.33;;;;;;;-1.72;100.00;98093.16;4158634;28;20271;-53
2024/01/16 04:14:09;;;;;;;2.40;2.30;;;;;;;-1.70;100.00;98088.44;4170579;28;20216;-54
2024/01/16 04:16:12;;;;;;;2.97;2.77;;;;;;;-1.81;100.00;98094.25;4165906;28;20296;-55
2024/01/16 04:18:13;;;;;;;5.20;4.73;;;;;;;-1.72;100.00;98088.63;4168149;28;20609;-53
2024/01/16 04:20:16;;;;;;;3.60;3.40;;;;;;;-1.82;100.00;98093.41;4167199;28;21131;-52
2024/01/16 04:22:18;;;;;;;8.47;3.20;;;;;;;-1.87;100.00;98081.59;4172383;28;20323;-57
2024/01/16 04:24:19;;;;;;;3.80;3.60;;;;;;;-1.99;100.00;98083.88;4173031;28;20216;-53
2024/01/16 04:26:21;;;;;;;4.20;3.90;;;;;;;-1.91;100.00;98082.97;4165335;28;20751;-53
2024/01/16 04:28:23;;;;;;;3.40;3.17;;;;;;;-2.01;100.00;98082.41;4174437;28;20592;-54
2024/01/16 04:30:25;;;;;;;3.07;2.93;;;;;;;-2.10;100.00;98078.97;4154533;28;20748;-52
2024/01/16 04:32:27;;;;;;;3.20;3.00;;;;;;;-2.29;100.00;98083.97;4164638;28;20236;-52
2024/01/16 04:34:29;;;;;;;3.30;3.20;;;;;;;-2.26;100.00;98089.00;4169664;28;20261;-52
2024/01/16 04:36:31;;;;;;;3.60;3.30;;;;;;;-2.38;100.00;98082.38;4165376;28;20216;-53
2024/01/16 04:38:33;;;;;;;3.60;3.33;;;;;;;-2.41;100.00;98074.72;4166075;28;20204;-53
2024/01/16 04:40:34;;;;;;;5.13;4.83;;;;;;;-2.32;100.00;98079.00;4166225;28;20252;-53
2024/01/16 04:42:36;;;;;;;4.07;3.67;;;;;;;-2.36;100.00;98083.03;4168915;28;20279;-53
2024/01/16 04:44:38;;;;;;;4.43;4.00;;;;;;;-2.48;100.00;98068.44;4171804;28;20211;-53
2024/01/16 04:46:40;;;;;;;4.73;4.53;;;;;;;-2.40;100.00;98071.03;4167911;28;20316;-57
2024/01/16 04:48:42;;;;;;;10.47;4.20;;;;;;;-2.42;100.00;98067.72;4158658;28;20228;-56
2024/01/16 04:50:45;;;;;;;3.03;2.93;;;;;;;-2.48;100.00;98063.06;4186625;28;20211;-53
2024/01/16 04:52:47;;;;;;;5.20;4.90;;;;;;;-2.40;100.00;98053.09;4184023;28;20284;-56
2024/01/16 04:54:52;;;;;;;3.20;3.00;;;;;;;-2.38;100.00;98063.66;4173069;28;20269;-55
2024/01/16 04:56:54;;;;;;;11.20;4.80;;;;;;;-2.38;100.00;98061.81;4169720;28;20197;-56
2024/01/16 04:58:56;;;;;;;3.07;2.97;;;;;;;-2.36;100.00;98062.47;4167549;28;20197;-52
2024/01/16 05:00:58;;;;;;;3.37;3.17;;;;;;;-2.29;100.00;98058.03;4171886;28;20208;-53
2024/01/16 05:03:04;;;;;;;4.97;4.47;;;;;;;-2.31;100.00;98064.59;4167811;28;20231;-55
2024/01/16 05:05:06;;;;;;;15.33;4.10;;;;;;;-2.31;100.00;98060.06;4167237;28;20214;-54
2024/01/16 05:07:08;;;;;;;3.40;3.30;;;;;;;-2.37;100.00;98055.44;4169028;28;20344;-56
2024/01/16 05:09:10;;;;;;;2.90;2.80;;;;;;;-2.31;100.00;98048.50;4170344;28;20228;-56
2024/01/16 05:11:12;;;;;;;5.60;4.00;;;;;;;-2.20;100.00;98040.88;4168800;28;20243;-56
2024/01/16 05:13:13;;;;;;;3.60;3.40;;;;;;;-2.15;100.00;98037.66;4174581;28;20677;-51
2024/01/16 05:15:15;;;;;;;3.10;2.90;;;;;;;-2.18;100.00;98038.00;4174962;28;20204;-52
2024/01/16 05:17:17;;;;;;;3.30;3.13;;;;;;;-2.10;100.00;98036.09;4174928;28;20681;-53
2024/01/16 05:19:18;;;;;;;5.70;5.20;;;;;;;-2.12;100.00;98031.94;4169493;28;20283;-52
2024/01/16 05:21:20;;;;;;;3.23;3.13;;;;;;;-2.16;100.00;98036.81;4170305;28;20236;-52
2024/01/16 05:23:22;;;;;;;4.23;3.93;;;;;;;-2.12;100.00;98026.56;4173960;28;20216;-52
2024/01/16 05:25:24;;;;;;;2.43;2.33;;;;;;;-2.28;100.00;98024.06;4169331;28;20201;-52
2024/01/16 05:27:26;;;;;;;4.10;2.53;;;;;;;-2.31;100.00;98021.72;4165156;28;20243;-53
2024/01/16 05:29:28;;;;;;;2.40;2.30;;;;;;;-2.30;100.00;98028.75;4170692;28;20286;-52
2024/01/16 05:31:29;;;;;;;3.03;2.83;;;;;;;-2.27;100.00;98023.03;4171297;28;20236;-52
2024/01/16 05:33:32;;;;;;;3.37;3.17;;;;;;;-2.37;100.00;98022.44;4172620;28;20223;-52
2024/01/16 05:35:34;;;;;;;3.40;3.20;;;;;;;-2.42;100.00;98014.97;4170890;28;20295;-57
2024/01/16 05:37:36;;;;;;;3.90;3.70;;;;;;;-2.47;100.00;98016.53;4177349;28;20204;-52
2024/01/16 05:39:37;;;;;;;3.77;3.57;;;;;;;-2.42;100.00;98008.78;4174346;28;20286;-52
2024/01/16 05:41:40;;;;;;;8.40;3.07;;;;;;;-2.55;100.00;98019.28;4176774;28;20664;-53
2024/01/16 05:43:41;;;;;;;3.40;3.20;;;;;;;-2.62;100.00;98018.34;4178394;28;20212;-54
2024/01/16 05:45:43;;;;;;;2.40;2.30;;;;;;;-2.61;100.00;98014.66;4178619;28;20207;-52
2024/01/16 05:47:45;;;;;;;3.23;3.10;;;;;;;-2.50;100.00;98024.91;4172092;28;20219;-52
2024/01/16 05:49:47;;;;;;;3.60;3.47;;;;;;;-2.78;100.00;98021.97;4171890;28;20751;-53
2024/01/16 05:51:49;;;;;;;33.40;5.73;;;;;;;-2.91;100.00;98013.72;4170174;28;20228;-52
2024/01/16 05:53:50;;;;;;;9.53;2.80;;;;;;;-2.85;100.00;98017.50;4175577;28;20627;-54
2024/01/16 05:55:53;;;;;;;3.20;3.10;;;;;;;-2.96;100.00;98005.38;4176871;28;20684;-54
2024/01/16 05:57:55;;;;;;;5.20;3.87;;;;;;;-2.96;100.00;98015.25;4171686;28;20877;-51
2024/01/16 05:59:57;;;;;;;2.87;2.67;;;;;;;-3.02;100.00;98015.97;4173084;28;20201;-52
2024/01/16 06:01:59;;;;;;;3.87;3.60;;;;;;;-3.09;100.00;98009.66;4177353;28;20297;-52
2024/01/16 06:04:01;;;;;;;3.60;3.40;;;;;;;-3.15;100.00;97999.69;4173442;28;20261;-56
2024/01/16 06:06:02;;;;;;;11.20;8.77;;;;;;;-3.15;100.00;98007.72;4177628;28;20295;-55
2024/01/16 06:08:04;;;;;;;11.10;9.87;;;;;;;-3.20;100.00;98002.06;4169221;28;20212;-53
2024/01/16 06:10:07;;;;;;;10.10;8.23;;;;;;;-3.19;100.00;98003.72;4177619;28;20239;-52
2024/01/16 06:12:08;;;;;;;6.77;6.13;;;;;;;-3.16;100.00;98004.19;4176110;28;20236;-52
2024/01/16 06:14:12;;;;;;;5.53;5.10;;;;;;;-3.03;100.00;98004.44;4172497;28;22749;-55
2024/01/16 06:16:14;;;;;;;4.57;4.30;;;;;;;-3.04;100.00;98002.78;4172074;28;20655;-53
2024/01/16 06:18:15;;;;;;;4.17;3.90;;;;;;;-3.06;100.00;97998.59;4174954;28;20789;-54
2024/01/16 06:20:17;;;;;;;5.27;5.07;;;;;;;-3.04;100.00;98002.78;4173429;28;20345;-54
2024/01/16 06:22:19;;;;;;;2.93;2.83;;;;;;;-3.02;100.00;97991.91;4173988;28;20228;-54
2024/01/16 06:24:21;;;;;;;2.23;2.13;;;;;;;-3.01;100.00;98001.59;4176432;28;20254;-52
2024/01/16 06:26:23;;;;;;;16.07;3.57;;;;;;;-3.02;100.00;97994.56;4173964;28;20212;-57
2024/01/16 06:28:25;;;;;;;14.23;3.87;;;;;;;-2.99;100.00;97999.56;4175777;28;20274;-54
2024/01/16 06:30:27;;;;;;;3.90;3.70;;;;;;;-3.02;100.00;97989.22;4169158;28;20209;-53
2024/01/16 06:32:29;;;;;;;2.87;2.57;;;;;;;-3.02;100.00;97994.56;4168598;28;20228;-54
2024/01/16 06:34:31;;;;;;;3.93;3.73;;;;;;;-3.03;100.00;97999.09;4183705;28;20216;-56
2024/01/16 06:36:33;;;;;;;3.57;3.37;;;;;;;-3.04;100.00;98001.94;4183279;28;20208;-52
2024/01/16 06:38:34;;;;;;;3.30;3.10;;;;;;;-3.03;100.00;98000.91;4166550;28;20838;-52
2024/01/16 06:40:36;;;;;;;4.23;4.03;;;;;;;-3.02;100.00;98000.75;4172510;28;20692;-55
2024/01/16 06:42:38;;;;;;;3.70;3.50;;;;;;;-2.93;100.00;97996.19;4167442;28;20224;-52
2024/01/16 06:44:40;;;;;;;3.43;3.23;;;;;;;-2.97;100.00;97986.81;4170492;28;20707;-53
2024/01/16 06:46:41;;;;;;;3.47;3.27;;;;;;;-2.98;100.00;97995.88;4171534;28;20219;-52
2024/01/16 06:48:46;;;;;;;4.70;4.50;;;;;;;-3.10;100.00;97991.94;4173659;28;20208;-52
2024/01/16 06:50:48;;;;;;;5.33;4.57;;;;;;;-2.98;100.00;97995.88;4167632;28;20694;-52
2024/01/16 06:52:50;;;;;;;2.87;2.67;;;;;;;-3.09;100.00;97996.28;4167557;28;20216;-52
2024/01/16 06:54:52;;;;;;;18.73;5.87;;;;;;;-3.02;100.00;97999.94;4152933;28;20682;-55
2024/01/16 06:56:53;;;;;;;6.63;6.07;;;;;;;-2.93;100.00;97993.50;4169239;28;20266;-52
2024/01/16 06:58:55;;;;;;;4.40;4.10;;;;;;;-3.13;100.00;97992.31;4167846;28;20262;-56
2024/01/16 07:00:58;;;;;;;3.93;3.73;;;;;;;-3.06;100.00;97993.25;4167834;28;20837;-57
2024/01/16 07:02:59;;;;;;;3.37;3.17;;;;;;;-3.16;100.00;97992.63;4169258;28;20271;-53
2024/01/16 07:05:01;;;;;;;2.70;2.50;;;;;;;-3.18;100.00;97994.66;4170049;28;20736;-56
2024/01/16 07:07:03;;;;;;;7.77;3.20;;;;;;;-3.18;100.00;97994.66;4156997;28;20751;-53
2024/01/16 07:09:05;;;;;;;9.00;4.17;;;;;;;-3.08;100.00;97993.44;4167065;28;20677;-52
2024/01/16 07:11:08;;;;;;;4.30;4.00;;;;;;;-3.31;100.00;97999.78;4169142;28;20207;-52
2024/01/16 07:13:12;;;;;;;5.30;5.03;;;;;;;-3.20;100.00;97991.34;4169299;28;20704;-52
2024/01/16 07:15:13;;;;;;;4.30;3.90;;;;;;;-3.28;100.00;97994.09;4175008;28;20208;-54
2024/01/16 07:17:15;;;;;;;3.43;3.23;;;;;;;-3.29;100.00;97992.38;4165891;28;20216;-53
2024/01/16 07:19:17;;;;;;;4.20;3.93;;;;;;;-3.31;100.00;98000.63;4169217;28;20263;-53
2024/01/16 07:21:19;;;;;;;9.33;4.13;;;;;;;-3.28;100.00;97996.75;4170156;28;20228;-52
2024/01/16 07:23:21;;;;;;;4.67;4.37;;;;;;;-3.30;100.00;97998.75;4171852;28;20257;-53
2024/01/16 07:25:23;;;;;;;3.03;2.93;;;;;;;-3.28;100.00;97988.72;4169731;28;20236;-52
2024/01/16 07:27:25;;;;;;;11.70;3.60;;;;;;;-3.28;100.00;97988.72;4167657;28;20204;-55
2024/01/16 07:29:26;;;;;;;5.43;4.90;;;;;;;-3.29;100.00;97992.38;4174002;28;20228;-53
2024/01/16 07:31:28;;;;;;;4.27;3.87;;;;;;;-3.32;100.00;98000.78;4169804;28;20227;-54
2024/01/16 07:33:30;;;;;;;4.53;4.17;;;;;;;-3.27;100.00;97995.75;4175394;28;20210;-53
2024/01/16 07:35:32;;;;;;;3.47;3.30;;;;;;;-3.24;100.00;98000.72;4167106;28;20215;-56
2024/01/16 07:37:34;;;;;;;4.07;3.87;;;;;;;-3.25;100.00;98005.25;4168933;28;20636;-54
2024/01/16 07:39:35;;;;;;;5.70;3.97;;;;;;;-3.22;100.00;97993.34;4172677;28;20329;-53
2024/01/16 07:41:37;;;;;;;4.30;4.10;;;;;;;-3.19;100.00;98001.03;4156615;28;20298;-53
2024/01/16 07:43:39;;;;;;;4.30;3.90;;;;;;;-3.19;100.00;98003.72;4185335;28;20250;-54
2024/01/16 07:45:41;;;;;;;4.80;4.47;;;;;;;-3.17;100.00;98002.53;4170745;28;20308;-54
2024/01/16 07:47:43;;;;;;;10.63;5.77;;;;;;;-3.13;100.00;98008.34;4167891;28;20253;-56
2024/01/16 07:49:44;;;;;;;4.10;3.90;;;;;;;-3.13;100.00;98008.34;4168059;28;20862;-51
2024/01/16 07:51:46;;;;;;;3.30;3.13;;;;;;;-3.09;100.00;98017.66;4170260;28;20224;-52
2024/01/16 07:53:51;;;;;;;5.17;4.77;;;;;;;-3.03;100.00;98019.63;4166985;28;20676;-55
2024/01/16 07:55:54;;;;;;;4.87;4.67;;;;;;;-3.06;100.00;98025.34;4182520;28;20229;-52
2024/01/16 07:57:56;;;;;;;4.03;3.77;;;;;;;-3.06;100.00;98030.72;4169329;28;20203;-52
2024/01/16 07:59:58;;;;;;;4.63;4.33;;;;;;;-3.04;100.00;98031.34;4170109;28;20239;-52
2024/01/16 08:02:00;;;;;;;3.23;2.97;;;;;;;-3.03;100.00;98020.50;4169841;28;20227;-55
2024/01/16 08:04:02;;;;;;;4.07;3.77;;;;;;;-3.02;100.00;98027.50;4170169;28;20212;-57
2024/01/16 08:06:04;;;;;;;4.43;4.13;;;;;;;-2.97;100.00;98034.97;4172053;28;20265;-52
2024/01/16 08:08:09;;;;;;;4.57;4.20;;;;;;;-2.96;100.00;98032.13;4171254;28;20797;-52
2024/01/16 08:10:11;;;;;;;3.43;3.23;;;;;;;-2.97;100.00;98040.34;4168824;28;20230;-53
2024/01/16 08:12:12;;;;;;;4.33;4.13;;;;;;;-2.96;100.00;98047.34;4170783;28;20235;-53
2024/01/16 08:14:14;;;;;;;4.23;4.03;;;;;;;-2.97;100.00;98057.22;4169841;28;20212;-54
2024/01/16 08:16:16;;;;;;;4.33;4.03;;;;;;;-2.88;100.00;98039.28;4168511;28;20250;-52
2024/01/16 08:18:18;;;;;;;2.67;2.50;;;;;;;-2.90;100.00;98043.97;4167199;28;20212;-52
2024/01/16 08:20:20;;;;;;;5.13;4.07;;;;;;;-2.76;100.00;98046.72;4168395;28;20712;-53
2024/01/16 08:22:21;;;;;;;10.70;5.03;;;;;;;-2.92;100.00;98048.66;4168228;28;20259;-52
2024/01/16 08:24:24;;;;;;;4.67;4.27;;;;;;;-2.87;100.00;98046.31;4167845;28;20208;-53
2024/01/16 08:26:25;;;;;;;5.53;4.23;;;;;;;-2.83;100.00;98050.28;4167486;28;20874;-53
2024/01/16 08:28:27;;;;;;;4.47;4.27;;;;;;;-2.77;100.00;98047.72;4166183;28;20261;-55
2024/01/16 08:30:29;;;;;;;4.57;4.27;;;;;;;-2.68;100.00;98052.00;4145645;28;20632;-55
2024/01/16 08:32:31;;;;;;;3.57;3.37;;;;;;;-2.68;100.00;98045.84;4168481;28;20239;-55
2024/01/16 08:34:36;;;;;;;8.67;2.93;;;;;;;-2.58;100.00;98046.41;4168103;28;20212;-53
2024/01/16 08:36:40;;;;;;;20.03;4.73;;;;;;;-2.48;100.00;98047.00;4171491;28;20204;-53
2024/01/16 08:38:41;;;;;;;5.50;5.03;;;;;;;-2.33;100.00;98037.16;4170630;28;20558;-57
2024/01/16 08:40:43;;;;;;;4.53;4.03;;;;;;;-2.51;100.00;98047.34;4166832;28;20196;-53
2024/01/16 08:42:45;;;;;;;5.83;5.43;;;;;;;-2.42;100.00;98047.09;4171593;28;21230;-53
2024/01/16 08:44:46;;;;;;;5.37;4.97;;;;;;;-2.37;100.00;98059.94;4171347;28;20285;-53
2024/01/16 08:46:49;;;;;;;8.70;5.27;;;;;;;-2.10;100.00;98054.84;4167010;28;20212;-55
2024/01/16 08:48:51;;;;;;;4.40;4.03;;;;;;;-2.15;100.00;98053.75;4170004;28;20223;-53
2024/01/16 08:50:55;;;;;;;17.97;9.03;;;;;;;-2.08;100.00;98062.72;4179634;28;20277;-55
2024/01/16 08:52:57;;;;;;;6.63;6.17;;;;;;;-2.11;100.00;98058.53;4169536;28;22378;-55
2024/01/16 08:54:59;;;;;;;11.77;6.33;;;;;;;-1.98;100.00;98060.59;4169975;28;20211;-57
2024/01/16 08:57:01;;;;;;;6.20;5.67;;;;;;;-1.77;100.00;98058.00;4166132;28;20238;-55
2024/01/16 08:59:03;;;;;;;3.27;3.07;;;;;;;-1.85;100.00;98061.63;4155985;28;20721;-55
2024/01/16 09:01:05;;;;;;;4.83;4.50;;;;;;;-1.70;100.00;98066.97;4167005;28;20617;-56
2024/01/16 09:03:07;;;;;;;3.17;2.80;;;;;;;-1.56;100.00;98063.47;4171101;28;20219;-56
2024/01/16 09:05:09;;;;;;;3.60;3.30;;;;;;;-1.44;100.00;98065.50;4171684;28;20630;-57
2024/01/16 09:07:15;;;;;;;3.93;3.63;;;;;;;-1.34;100.00;98073.28;4172088;28;20307;-56
2024/01/16 09:09:17;;;;;;;3.50;3.30;;;;;;;-1.46;100.00;98072.06;4174915;28;20216;-53
2024/01/16 09:11:19;;;;;;;5.17;4.57;;;;;;;-1.52;100.00;98067.44;4173276;28;20274;-53
2024/01/16 09:13:21;;;;;;;4.23;3.93;;;;;;;-1.39;100.00;98083.72;4160937;28;20240;-53
2024/01/16 09:15:23;;;;;;;3.00;2.90;;;;;;;-1.21;100.00;98081.50;4177252;28;20208;-52
2024/01/16 09:17:27;;;;;;;2.63;2.43;;;;;;;-1.37;100.00;98087.03;4153720;28;20707;-53
2024/01/16 09:19:29;;;;;;;6.83;4.10;;;;;;;-1.24;100.00;98085.38;4168252;28;20658;-51
2024/01/16 09:21:35;;;;;;;6.07;5.67;;;;;;;-1.28;100.00;98076.03;4169041;28;20313;-55
2024/01/16 09:23:37;;;;;;;6.37;5.73;;;;;;;-1.21;100.00;98068.91;4173127;28;20291;-53
2024/01/16 09:25:39;;;;;;;3.00;2.80;;;;;;;-1.18;100.00;98060.47;4174288;28;20227;-52
2024/01/16 09:27:41;;;;;;;3.00;2.80;;;;;;;-1.19;100.00;98068.72;4178025;28;20303;-53